createdAt,value
2024-03-27T00:00:29.719Z,64201.63
2024-03-27T00:03:17.707Z,64202.45
2024-03-27T00:05:45.903Z,64203.00
2024-03-27T00:08:13.849Z,64203.20
2024-03-27T00:10:41.888Z,64203.56
2024-03-27T00:13:09.850Z,64204.01
2024-03-27T00:15:37.737Z,64204.18
2024-03-27T00:18:05.713Z,64203.42
2024-03-27T00:20:33.668Z,64203.17
2024-03-27T00:23:01.641Z,64203.26
2024-03-27T00:25:29.516Z,64203.76
2024-03-27T00:27:57.708Z,64204.38
2024-03-27T00:30:25.786Z,64204.43
2024-03-27T00:32:56.143Z,64204.57
2024-03-27T00:35:24.060Z,64204.80
2024-03-27T00:37:53.649Z,64205.03
2024-03-27T00:40:21.625Z,64204.84
2024-03-27T00:42:50.895Z,64204.79
2024-03-27T00:45:19.012Z,64204.51
2024-03-27T00:47:47.022Z,64203.94
2024-03-27T00:50:15.000Z,64203.38
2024-03-27T00:52:43.327Z,64203.07
2024-03-27T00:55:11.259Z,64203.60
2024-03-27T00:57:39.170Z,64203.70
2024-03-27T01:00:07.888Z,64203.80
2024-03-27T01:02:35.769Z,64203.71
2024-03-27T01:05:03.916Z,64203.91
2024-03-27T01:07:32.012Z,64204.36
2024-03-27T01:10:00.039Z,64205.04
2024-03-27T01:12:28.321Z,64204.98
2024-03-27T01:14:56.296Z,64205.26
2024-03-27T01:17:24.247Z,64205.05
2024-03-27T01:19:52.247Z,64205.30
2024-03-27T01:22:20.287Z,64204.92
2024-03-27T01:24:48.186Z,64204.24
2024-03-27T01:27:16.066Z,64203.96
2024-03-27T01:29:44.030Z,64204.14
2024-03-27T01:32:12.441Z,64204.82
2024-03-27T01:34:40.442Z,64205.27
2024-03-27T01:37:08.487Z,64204.72
2024-03-27T01:39:36.489Z,64204.84
2024-03-27T01:42:04.526Z,64204.88
2024-03-27T01:44:32.666Z,64204.96
2024-03-27T01:47:00.648Z,64204.45
2024-03-27T01:49:28.614Z,64204.87
2024-03-27T01:51:56.553Z,64204.79
2024-03-27T01:54:24.448Z,64203.77
2024-03-27T01:56:52.476Z,64203.56
2024-03-27T01:59:21.180Z,64203.12
2024-03-27T02:01:49.491Z,64202.05
2024-03-27T02:04:17.424Z,64202.32
2024-03-27T02:06:45.366Z,64202.11
2024-03-27T02:09:14.264Z,64202.42
2024-03-27T02:11:42.128Z,64202.09
2024-03-27T02:14:10.136Z,64202.40
2024-03-27T02:16:38.160Z,64202.77
2024-03-27T02:19:06.005Z,64203.13
2024-03-27T02:21:34.234Z,64202.78
2024-03-27T02:24:17.365Z,64203.22
2024-03-27T02:26:45.214Z,64203.75
2024-03-27T02:29:13.239Z,64204.04
2024-03-27T02:31:41.237Z,64203.28
2024-03-27T02:34:09.298Z,64203.80
2024-03-27T02:36:37.136Z,64202.84
2024-03-27T02:39:08.550Z,64202.84
2024-03-27T02:41:36.665Z,64203.20
2024-03-27T02:44:04.681Z,64203.47
2024-03-27T02:46:32.677Z,64203.67
2024-03-27T02:49:00.576Z,64203.59
2024-03-27T02:51:28.582Z,64203.39
2024-03-27T02:53:56.477Z,64203.27
2024-03-27T02:56:24.399Z,64202.77
2024-03-27T02:58:52.409Z,64202.84
2024-03-27T03:01:20.518Z,64202.57
2024-03-27T03:03:48.473Z,64203.39
2024-03-27T03:06:16.802Z,64204.10
2024-03-27T03:08:44.850Z,64204.36
2024-03-27T03:11:12.790Z,64204.09
2024-03-27T03:13:40.872Z,64204.13
2024-03-27T03:16:08.930Z,64204.35
2024-03-27T03:18:37.169Z,64204.16
2024-03-27T03:21:05.486Z,64204.30
2024-03-27T03:23:34.662Z,64204.13
2024-03-27T03:26:02.608Z,64204.93
2024-03-27T03:28:30.754Z,64205.24
2024-03-27T03:31:05.632Z,64205.36
2024-03-27T03:33:33.541Z,64204.61
2024-03-27T03:36:01.695Z,64204.31
2024-03-27T03:38:29.698Z,64204.89
2024-03-27T03:41:01.654Z,64205.46
2024-03-27T03:43:29.796Z,64204.22
2024-03-27T03:45:57.760Z,64203.26
2024-03-27T03:48:25.793Z,64202.85
2024-03-27T03:50:53.805Z,64202.02
2024-03-27T03:53:21.674Z,64201.67
2024-03-27T03:55:49.648Z,64202.01
2024-03-27T03:58:17.646Z,64201.54
2024-03-27T04:00:54.416Z,64201.96
2024-03-27T04:03:22.456Z,64202.71
2024-03-27T04:05:50.422Z,64201.89
2024-03-27T04:08:18.447Z,64202.16
2024-03-27T04:10:46.376Z,64202.34
2024-03-27T04:13:14.298Z,64202.34
2024-03-27T04:15:43.067Z,64202.91
2024-03-27T04:18:10.971Z,64203.68
2024-03-27T04:20:42.178Z,64203.66
2024-03-27T04:23:11.095Z,64203.49
2024-03-27T04:25:54.005Z,64203.05
2024-03-27T04:28:27.071Z,64202.99
2024-03-27T04:30:55.080Z,64202.95
2024-03-27T04:33:23.052Z,64202.50
2024-03-27T04:35:51.094Z,64202.89
2024-03-27T04:38:19.114Z,64203.71
2024-03-27T04:40:46.977Z,64204.31
2024-03-27T04:43:14.895Z,64205.14
2024-03-27T04:45:42.931Z,64205.72
2024-03-27T04:48:10.893Z,64206.21
2024-03-27T04:50:39.042Z,64206.58
2024-03-27T04:53:07.073Z,64207.29
2024-03-27T04:55:35.022Z,64207.96
2024-03-27T04:58:03.046Z,64209.02
2024-03-27T05:00:31.234Z,64209.32
2024-03-27T05:02:59.285Z,64210.05
2024-03-27T05:05:27.329Z,64211.20
2024-03-27T05:07:55.337Z,64212.20
2024-03-27T05:10:23.402Z,64212.54
2024-03-27T05:12:51.406Z,64212.68
2024-03-27T05:15:19.393Z,64213.52
2024-03-27T05:17:48.053Z,64213.29
2024-03-27T05:20:18.806Z,64212.77
2024-03-27T05:22:46.835Z,64212.81
2024-03-27T05:25:14.863Z,64213.84
2024-03-27T05:27:42.736Z,64214.62
2024-03-27T05:30:11.354Z,64214.73
2024-03-27T05:32:39.386Z,64215.05
2024-03-27T05:35:07.849Z,64215.02
2024-03-27T05:37:35.932Z,64215.54
2024-03-27T05:40:04.552Z,64215.43
2024-03-27T05:42:32.561Z,64216.22
2024-03-27T05:45:00.703Z,64217.14
2024-03-27T05:47:28.752Z,64217.30
2024-03-27T05:49:56.739Z,64217.70
2024-03-27T05:52:24.601Z,64217.72
2024-03-27T05:54:53.525Z,64218.41
2024-03-27T05:57:21.451Z,64219.71
2024-03-27T05:59:49.649Z,64220.65
2024-03-27T06:02:17.639Z,64221.83
2024-03-27T06:04:46.159Z,64222.99
2024-03-27T06:07:14.436Z,64223.32
2024-03-27T06:09:42.368Z,64221.77
2024-03-27T06:12:10.270Z,64219.55
2024-03-27T06:14:38.145Z,64216.52
2024-03-27T06:17:06.256Z,64213.63
2024-03-27T06:19:34.377Z,64211.66
2024-03-27T06:22:02.386Z,64210.71
2024-03-27T06:24:30.379Z,64210.10
2024-03-27T06:26:58.391Z,64210.59
2024-03-27T06:29:26.322Z,64210.26
2024-03-27T06:31:54.341Z,64209.59
2024-03-27T06:34:22.390Z,64208.76
2024-03-27T06:36:50.452Z,64207.08
2024-03-27T06:39:18.318Z,64206.41
2024-03-27T06:41:46.274Z,64205.48
2024-03-27T06:44:16.146Z,64205.45
2024-03-27T06:46:44.041Z,64205.88
2024-03-27T06:49:22.811Z,64206.68
2024-03-27T06:51:51.083Z,64208.18
2024-03-27T06:54:19.108Z,64209.90
2024-03-27T06:56:47.335Z,64212.01
2024-03-27T06:59:15.271Z,64213.07
2024-03-27T07:01:43.318Z,64214.11
2024-03-27T07:04:11.544Z,64215.18
2024-03-27T07:06:39.481Z,64216.17
2024-03-27T07:09:07.419Z,64216.14
2024-03-27T07:11:35.411Z,64217.31
2024-03-27T07:14:03.343Z,64219.09
2024-03-27T07:16:31.291Z,64221.59
2024-03-27T07:18:59.496Z,64223.77
2024-03-27T07:21:27.499Z,64226.14
2024-03-27T07:23:55.508Z,64228.41
2024-03-27T07:26:25.422Z,64229.82
2024-03-27T07:28:54.887Z,64231.11
2024-03-27T07:31:22.761Z,64232.59
2024-03-27T07:33:50.761Z,64234.57
2024-03-27T07:36:18.700Z,64236.70
2024-03-27T07:38:46.596Z,64238.39
2024-03-27T07:41:14.605Z,64240.71
2024-03-27T07:43:42.516Z,64242.90
2024-03-27T07:46:12.362Z,64244.57
2024-03-27T07:48:40.425Z,64246.09
2024-03-27T07:51:08.405Z,64248.48
2024-03-27T07:53:36.250Z,64250.98
2024-03-27T07:56:04.431Z,64252.48
2024-03-27T07:58:32.361Z,64253.26
2024-03-27T08:01:00.356Z,64253.53
2024-03-27T08:03:29.292Z,64253.66
2024-03-27T08:05:58.335Z,64253.02
2024-03-27T08:08:26.233Z,64252.25
2024-03-27T08:11:00.077Z,64251.45
2024-03-27T08:13:28.094Z,64250.74
2024-03-27T08:15:56.124Z,64250.57
2024-03-27T08:18:24.114Z,64250.88
2024-03-27T08:20:53.088Z,64251.33
2024-03-27T08:23:21.511Z,64251.91
2024-03-27T08:25:49.492Z,64252.69
2024-03-27T08:28:17.528Z,64253.51
2024-03-27T08:30:45.423Z,64254.26
2024-03-27T08:33:13.385Z,64254.91
2024-03-27T08:35:41.407Z,64255.80
2024-03-27T08:38:14.259Z,64257.95
2024-03-27T08:40:42.932Z,64259.60
2024-03-27T08:43:10.965Z,64260.57
2024-03-27T08:45:38.849Z,64261.68
2024-03-27T08:48:06.998Z,64262.20
2024-03-27T08:50:34.883Z,64262.49
2024-03-27T08:53:03.007Z,64262.29
2024-03-27T08:55:31.618Z,64262.54
2024-03-27T08:57:59.506Z,64261.55
2024-03-27T09:00:27.441Z,64260.19
2024-03-27T09:02:55.411Z,64259.07
2024-03-27T09:05:23.502Z,64258.35
2024-03-27T09:07:51.529Z,64257.46
2024-03-27T09:10:19.550Z,64256.26
2024-03-27T09:12:47.647Z,64254.45
2024-03-27T09:15:15.534Z,64253.72
2024-03-27T09:17:43.389Z,64253.61
2024-03-27T09:20:11.707Z,64253.14
2024-03-27T09:22:40.161Z,64253.22
2024-03-27T09:25:09.496Z,64253.64
2024-03-27T09:27:37.526Z,64254.34
2024-03-27T09:30:07.120Z,64254.86
2024-03-27T09:32:35.242Z,64255.54
2024-03-27T09:35:03.284Z,64256.47
2024-03-27T09:37:31.187Z,64257.45
2024-03-27T09:39:59.122Z,64258.10
2024-03-27T09:42:27.362Z,64258.01
2024-03-27T09:44:55.398Z,64258.73
2024-03-27T09:47:24.106Z,64259.10
2024-03-27T09:49:52.144Z,64259.89
2024-03-27T09:52:20.328Z,64260.60
2024-03-27T09:54:48.425Z,64261.96
2024-03-27T09:57:18.007Z,64263.06
2024-03-27T09:59:46.152Z,64264.11
2024-03-27T10:02:14.116Z,64264.79
2024-03-27T10:04:42.104Z,64263.86
2024-03-27T10:07:10.705Z,64263.20
2024-03-27T10:09:38.598Z,64262.26
2024-03-27T10:12:06.634Z,64260.76
2024-03-27T10:14:34.483Z,64259.11
2024-03-27T10:17:02.448Z,64258.26
2024-03-27T10:19:30.315Z,64257.68
2024-03-27T10:21:58.389Z,64257.67
2024-03-27T10:24:26.264Z,64256.78
2024-03-27T10:26:54.282Z,64256.34
2024-03-27T10:29:22.197Z,64256.13
2024-03-27T10:31:50.112Z,64255.75
2024-03-27T10:34:18.035Z,64255.43
2024-03-27T10:36:45.874Z,64255.66
2024-03-27T10:39:18.347Z,64255.74
2024-03-27T10:41:46.392Z,64254.97
2024-03-27T10:44:14.233Z,64253.54
2024-03-27T10:46:42.744Z,64252.30
2024-03-27T10:49:10.988Z,64251.75
2024-03-27T10:51:38.884Z,64250.96
2024-03-27T10:54:06.896Z,64249.78
2024-03-27T10:56:34.959Z,64248.36
2024-03-27T10:59:03.056Z,64247.77
2024-03-27T11:01:31.182Z,64247.45
2024-03-27T11:03:59.735Z,64246.92
2024-03-27T11:06:27.726Z,64246.48
2024-03-27T11:08:57.948Z,64247.70
2024-03-27T11:11:25.987Z,64250.50
2024-03-27T11:13:54.031Z,64253.04
2024-03-27T11:16:22.636Z,64255.14
2024-03-27T11:18:53.501Z,64258.49
2024-03-27T11:21:21.352Z,64262.48
2024-03-27T11:23:53.218Z,64265.48
2024-03-27T11:26:33.452Z,64268.43
2024-03-27T11:29:01.462Z,64272.05
2024-03-27T11:31:36.528Z,64275.24
2024-03-27T11:34:04.532Z,64278.44
2024-03-27T11:36:32.443Z,64281.59
2024-03-27T11:39:01.978Z,64285.05
2024-03-27T11:41:31.242Z,64289.08
2024-03-27T11:43:59.557Z,64292.76
2024-03-27T11:46:28.045Z,64296.63
2024-03-27T11:48:56.331Z,64300.14
2024-03-27T11:51:24.211Z,64304.96
2024-03-27T11:53:52.244Z,64310.50
2024-03-27T11:56:20.233Z,64317.20
2024-03-27T11:58:48.237Z,64323.34
2024-03-27T12:01:16.384Z,64328.77
2024-03-27T12:03:44.277Z,64333.38
2024-03-27T12:06:12.337Z,64338.57
2024-03-27T12:08:42.054Z,64346.13
2024-03-27T12:11:10.055Z,64355.25
2024-03-27T12:13:38.494Z,64365.36
2024-03-27T12:16:13.363Z,64374.88
2024-03-27T12:18:41.777Z,64383.92
2024-03-27T12:21:14.070Z,64393.96
2024-03-27T12:23:42.859Z,64403.96
2024-03-27T12:26:18.174Z,64414.39
2024-03-27T12:28:48.913Z,64426.55
2024-03-27T12:31:24.174Z,64439.59
2024-03-27T12:33:52.198Z,64453.60
2024-03-27T12:36:20.242Z,64467.56
2024-03-27T12:38:48.951Z,64481.58
2024-03-27T12:41:17.008Z,64495.33
2024-03-27T12:43:44.999Z,64508.98
2024-03-27T12:46:12.919Z,64522.44
2024-03-27T12:48:43.516Z,64534.32
2024-03-27T12:51:12.386Z,64543.31
2024-03-27T12:53:40.464Z,64548.89
2024-03-27T12:56:08.415Z,64552.14
2024-03-27T12:58:36.441Z,64552.04
2024-03-27T13:01:06.219Z,64550.27
2024-03-27T13:03:35.430Z,64547.02
2024-03-27T13:06:04.369Z,64542.27
2024-03-27T13:08:32.364Z,64535.99
2024-03-27T13:11:00.287Z,64529.93
2024-03-27T13:13:30.940Z,64523.51
2024-03-27T13:15:58.997Z,64517.16
2024-03-27T13:18:27.779Z,64511.41
2024-03-27T13:20:55.843Z,64507.17
2024-03-27T13:23:23.883Z,64503.66
2024-03-27T13:25:51.881Z,64499.59
2024-03-27T13:28:20.032Z,64495.84
2024-03-27T13:30:48.067Z,64491.76
2024-03-27T13:33:16.097Z,64488.74
2024-03-27T13:35:44.048Z,64485.34
2024-03-27T13:38:11.949Z,64482.66
2024-03-27T13:40:39.863Z,64480.48
2024-03-27T13:43:07.802Z,64478.05
2024-03-27T13:45:35.703Z,64474.82
2024-03-27T13:48:03.997Z,64472.29
2024-03-27T13:50:31.969Z,64470.91
2024-03-27T13:53:00.178Z,64470.36
2024-03-27T13:55:28.158Z,64470.14
2024-03-27T13:57:56.242Z,64470.10
2024-03-27T14:00:24.272Z,64469.15
2024-03-27T14:02:52.295Z,64468.92
2024-03-27T14:05:20.209Z,64469.06
2024-03-27T14:07:48.212Z,64470.25
2024-03-27T14:10:16.941Z,64470.76
2024-03-27T14:12:44.944Z,64470.91
2024-03-27T14:15:13.041Z,64471.52
2024-03-27T14:17:41.457Z,64472.32
2024-03-27T14:20:09.700Z,64473.44
2024-03-27T14:22:37.576Z,64473.81
2024-03-27T14:25:05.979Z,64473.05
2024-03-27T14:27:33.886Z,64472.56
2024-03-27T14:30:01.801Z,64472.50
2024-03-27T14:32:29.706Z,64472.99
2024-03-27T14:34:57.611Z,64473.57
2024-03-27T14:37:25.638Z,64473.90
2024-03-27T14:39:53.589Z,64473.19
2024-03-27T14:42:21.632Z,64472.21
2024-03-27T14:44:49.765Z,64471.93
2024-03-27T14:47:17.802Z,64471.75
2024-03-27T14:49:45.771Z,64469.46
2024-03-27T14:52:13.805Z,64467.36
2024-03-27T14:54:42.248Z,64465.51
2024-03-27T14:57:11.280Z,64464.03
2024-03-27T14:59:40.211Z,64461.67
2024-03-27T15:02:08.310Z,64459.29
2024-03-27T15:04:36.255Z,64456.79
2024-03-27T15:07:04.381Z,64454.03
2024-03-27T15:09:40.971Z,64451.53
2024-03-27T15:12:13.605Z,64448.45
2024-03-27T15:14:41.595Z,64446.17
2024-03-27T15:17:09.646Z,64443.85
2024-03-27T15:19:37.636Z,64441.50
2024-03-27T15:22:05.683Z,64439.59
2024-03-27T15:24:33.766Z,64437.66
2024-03-27T15:27:01.894Z,64435.49
2024-03-27T15:29:30.019Z,64433.48
2024-03-27T15:31:57.913Z,64431.04
2024-03-27T15:34:25.753Z,64428.39
2024-03-27T15:36:54.668Z,64425.77
2024-03-27T15:39:23.257Z,64423.11
2024-03-27T15:41:51.282Z,64420.61
2024-03-27T15:44:20.166Z,64417.77
2024-03-27T15:46:48.172Z,64415.27
2024-03-27T15:49:16.086Z,64413.72
2024-03-27T15:51:44.355Z,64411.70
2024-03-27T15:54:12.223Z,64410.24
2024-03-27T15:56:40.215Z,64409.26
2024-03-27T15:59:08.132Z,64407.68
2024-03-27T16:01:36.072Z,64405.80
2024-03-27T16:04:14.204Z,64404.00
2024-03-27T16:06:50.275Z,64402.45
2024-03-27T16:09:18.560Z,64401.13
2024-03-27T16:11:47.713Z,64399.76
2024-03-27T16:14:15.727Z,64398.84
2024-03-27T16:16:43.721Z,64397.74
2024-03-27T16:19:11.983Z,64396.19
2024-03-27T16:21:39.957Z,64394.42
2024-03-27T16:24:08.009Z,64393.13
2024-03-27T16:26:35.992Z,64391.91
2024-03-27T16:29:03.881Z,64391.09
2024-03-27T16:31:32.179Z,64389.71
2024-03-27T16:34:01.500Z,64388.95
2024-03-27T16:36:30.502Z,64388.13
2024-03-27T16:38:58.673Z,64387.14
2024-03-27T16:41:26.699Z,64386.52
2024-03-27T16:43:54.852Z,64385.43
2024-03-27T16:46:22.807Z,64385.24
2024-03-27T16:48:50.685Z,64384.85
2024-03-27T16:51:19.026Z,64384.12
2024-03-27T16:53:46.984Z,64382.97
2024-03-27T16:56:14.906Z,64382.42
2024-03-27T16:58:42.908Z,64381.82
2024-03-27T17:01:10.904Z,64381.26
2024-03-27T17:03:39.072Z,64380.66
2024-03-27T17:06:07.517Z,64380.10
2024-03-27T17:08:35.802Z,64379.75
2024-03-27T17:11:03.940Z,64379.30
2024-03-27T17:13:31.967Z,64379.19
2024-03-27T17:15:59.930Z,64379.49
2024-03-27T17:18:27.908Z,64379.74
2024-03-27T17:20:55.881Z,64380.24
2024-03-27T17:23:23.788Z,64380.41
2024-03-27T17:25:51.720Z,64379.84
2024-03-27T17:28:19.928Z,64379.43
2024-03-27T17:30:48.004Z,64379.23
2024-03-27T17:33:15.981Z,64379.11
2024-03-27T17:35:53.003Z,64379.01
2024-03-27T17:38:21.116Z,64379.21
2024-03-27T17:40:49.122Z,64379.11
2024-03-27T17:43:16.996Z,64379.23
2024-03-27T17:45:44.899Z,64378.91
2024-03-27T17:48:12.947Z,64378.59
2024-03-27T17:50:41.163Z,64379.05
2024-03-27T17:53:09.194Z,64379.57
2024-03-27T17:55:37.244Z,64379.51
2024-03-27T17:58:05.220Z,64379.52
2024-03-27T18:00:33.236Z,64379.05
2024-03-27T18:03:01.797Z,64379.13
2024-03-27T18:05:30.068Z,64379.82
2024-03-27T18:07:58.011Z,64380.42
2024-03-27T18:10:26.641Z,64380.88
2024-03-27T18:12:54.820Z,64381.10
2024-03-27T18:15:22.812Z,64381.76
2024-03-27T18:17:50.784Z,64381.74
2024-03-27T18:20:18.810Z,64381.98
2024-03-27T18:22:46.970Z,64382.26
2024-03-27T18:25:15.104Z,64382.77
2024-03-27T18:27:43.026Z,64383.19
2024-03-27T18:30:11.491Z,64382.29
2024-03-27T18:32:39.395Z,64382.92
2024-03-27T18:35:07.714Z,64383.05
2024-03-27T18:37:35.636Z,64383.02
2024-03-27T18:40:04.318Z,64382.96
2024-03-27T18:42:32.487Z,64382.79
2024-03-27T18:45:00.485Z,64383.56
2024-03-27T18:47:28.487Z,64384.44
2024-03-27T18:49:56.460Z,64384.52
2024-03-27T18:52:24.411Z,64384.48
2024-03-27T18:54:54.224Z,64384.84
2024-03-27T18:57:22.118Z,64385.25
2024-03-27T18:59:50.155Z,64386.02
2024-03-27T19:02:18.147Z,64386.30
2024-03-27T19:04:46.031Z,64386.70
2024-03-27T19:07:13.981Z,64386.96
2024-03-27T19:09:41.884Z,64386.82
2024-03-27T19:12:10.008Z,64387.27
2024-03-27T19:14:38.181Z,64387.29
2024-03-27T19:17:06.165Z,64387.68
2024-03-27T19:19:34.042Z,64387.93
2024-03-27T19:22:02.157Z,64388.95
2024-03-27T19:24:30.226Z,64388.76
2024-03-27T19:26:58.202Z,64388.48
2024-03-27T19:29:26.068Z,64388.30
2024-03-27T19:31:54.040Z,64388.05
2024-03-27T19:34:22.010Z,64388.42
2024-03-27T19:36:51.142Z,64389.08
2024-03-27T19:39:19.109Z,64388.60
2024-03-27T19:41:48.550Z,64389.12
2024-03-27T19:44:16.522Z,64389.52
2024-03-27T19:46:44.557Z,64389.11
2024-03-27T19:49:12.623Z,64389.17
2024-03-27T19:51:40.578Z,64389.04
2024-03-27T19:54:08.597Z,64388.98
2024-03-27T19:56:36.468Z,64388.79
2024-03-27T19:59:04.659Z,64389.42
2024-03-27T20:01:33.297Z,64389.86
2024-03-27T20:04:01.493Z,64390.35
2024-03-27T20:06:29.443Z,64390.78
2024-03-27T20:08:57.429Z,64391.09
2024-03-27T20:11:25.424Z,64391.43
2024-03-27T20:13:53.270Z,64391.66
2024-03-27T20:16:21.165Z,64391.17
2024-03-27T20:18:49.092Z,64390.93
2024-03-27T20:21:18.677Z,64390.11
2024-03-27T20:23:46.649Z,64389.86
2024-03-27T20:26:14.610Z,64389.52
2024-03-27T20:28:42.773Z,64390.16
2024-03-27T20:31:10.818Z,64389.84
2024-03-27T20:33:38.781Z,64390.03
2024-03-27T20:36:06.923Z,64389.91
2024-03-27T20:38:34.780Z,64389.64
2024-03-27T20:41:03.720Z,64390.29
2024-03-27T20:43:32.005Z,64390.98
2024-03-27T20:46:00.060Z,64391.18
2024-03-27T20:48:28.360Z,64391.29
2024-03-27T20:50:56.372Z,64391.45
2024-03-27T20:53:24.257Z,64391.76
2024-03-27T20:55:52.304Z,64392.09
2024-03-27T20:58:20.376Z,64392.34
2024-03-27T21:00:50.559Z,64392.78
2024-03-27T21:03:18.520Z,64393.29
2024-03-27T21:05:46.577Z,64393.23
2024-03-27T21:08:14.469Z,64393.73
2024-03-27T21:10:49.136Z,64394.36
2024-03-27T21:13:17.024Z,64394.63
2024-03-27T21:15:45.140Z,64394.51
2024-03-27T21:18:13.112Z,64394.13
2024-03-27T21:20:41.210Z,64393.02
2024-03-27T21:23:09.237Z,64392.21
2024-03-27T21:25:37.119Z,64392.39
2024-03-27T21:28:05.518Z,64392.65
2024-03-27T21:30:33.394Z,64391.36
2024-03-27T21:33:01.301Z,64390.52
2024-03-27T21:35:29.919Z,64389.83
2024-03-27T21:37:57.945Z,64388.45
2024-03-27T21:40:25.888Z,64386.22
2024-03-27T21:42:55.709Z,64383.80
2024-03-27T21:45:24.865Z,64381.38
2024-03-27T21:47:52.760Z,64379.53
2024-03-27T21:50:20.793Z,64377.59
2024-03-27T21:52:49.826Z,64375.32
2024-03-27T21:55:17.951Z,64372.49
2024-03-27T21:57:46.232Z,64369.69
2024-03-27T22:00:14.431Z,64368.57
2024-03-27T22:02:43.969Z,64367.79
2024-03-27T22:05:11.887Z,64366.70
2024-03-27T22:07:39.933Z,64365.26
2024-03-27T22:10:08.165Z,64364.62
2024-03-27T22:12:36.060Z,64364.01
2024-03-27T22:15:04.363Z,64363.30
2024-03-27T22:17:34.539Z,64362.22
2024-03-27T22:20:03.469Z,64362.30
2024-03-27T22:22:31.354Z,64362.86
2024-03-27T22:24:59.232Z,64362.13
2024-03-27T22:27:27.247Z,64361.52
2024-03-27T22:29:55.332Z,64361.26
2024-03-27T22:32:23.304Z,64361.62
2024-03-27T22:34:54.490Z,64361.80
2024-03-27T22:37:22.414Z,64361.43
2024-03-27T22:39:53.081Z,64361.39
2024-03-27T22:42:20.971Z,64361.34
2024-03-27T22:44:49.669Z,64361.28
2024-03-27T22:47:18.098Z,64361.18
2024-03-27T22:49:54.859Z,64361.02
2024-03-27T22:52:22.845Z,64360.63
2024-03-27T22:54:50.927Z,64360.76
2024-03-27T22:57:18.868Z,64360.26
2024-03-27T22:59:46.718Z,64359.94
2024-03-27T23:02:14.690Z,64359.88
2024-03-27T23:04:42.623Z,64359.59
2024-03-27T23:07:10.548Z,64359.49
2024-03-27T23:09:38.489Z,64359.42
2024-03-27T23:12:06.901Z,64360.13
2024-03-27T23:14:34.926Z,64360.18
2024-03-27T23:17:02.823Z,64360.79
2024-03-27T23:19:30.806Z,64361.52
2024-03-27T23:21:58.711Z,64361.84
2024-03-27T23:24:26.636Z,64361.56
2024-03-27T23:26:54.529Z,64361.59
2024-03-27T23:29:22.514Z,64361.54
2024-03-27T23:31:50.388Z,64361.77
2024-03-27T23:34:18.326Z,64361.54
2024-03-27T23:36:46.285Z,64361.77
2024-03-27T23:39:14.195Z,64361.54
2024-03-27T23:41:42.689Z,64361.34
2024-03-27T23:44:10.517Z,64361.56
2024-03-27T23:46:38.455Z,64361.40
2024-03-27T23:49:06.333Z,64360.77
2024-03-27T23:51:34.332Z,64359.90
2024-03-27T23:54:02.407Z,64359.51
2024-03-27T23:56:30.285Z,64359.54
2024-03-27T23:58:58.144Z,64359.22
